Time;durP1;ratioP1;P1;durP2;ratioP2;P2;SDS_P1;SDS_P2;PMS_P1;PMS_P2;Temp;Humidity;BMP_temperature;BMP_pressure;BME280_temperature;BME280_humidity;BME280_pressure;Samples;Min_cycle;Max_cycle;Signal;HPM_P1;HPM_P2
2021/12/10 00:02:01;;;;;;;;;;;;;;;;;;5132039;28;825;-62
2021/12/10 00:04:30;;;;;;;;;;;;;;;;;;5131516;28;812;-62
2021/12/10 00:06:56;;;;;;;;;;;;;;;;;;5131550;28;842;-62
2021/12/10 00:09:37;;;;;;;;;;;;;;;;;;5131661;28;872;-62
2021/12/10 00:12:06;;;;;;;;;;;;;;;;;;5131407;28;789;-62
2021/12/10 00:14:32;;;;;;;;;;;;;;;;;;5130945;28;1910;-62
2021/12/10 00:16:59;;;;;;;;;;;;;;;;;;5130835;28;812;-62
2021/12/10 00:19:34;;;;;;;;;;;;;;;;;;5130994;28;1181;-62
2021/12/10 00:22:00;;;;;;;;;;;;;;;;;;5133282;27;883;-62
2021/12/10 00:24:29;;;;;;;;;;;;;;;;;;5134997;27;1886;-63
2021/12/10 00:26:54;;;;;;;;;;;;;;;;;;5134958;27;903;-62
2021/12/10 00:29:20;;;;;;;;;;;;;;;;;;5135636;27;847;-62
2021/12/10 00:31:51;;;;;;;;;;;;;;;;;;5135005;27;809;-62
2021/12/10 00:34:22;;;;;;;;;;;;;;;;;;5135486;27;1893;-62
2021/12/10 00:36:49;;;;;;;;;;;;;;;;;;5134939;27;830;-62
2021/12/10 00:39:17;;;;;;;;;;;;;;;;;;5135637;27;907;-62
2021/12/10 00:41:42;;;;;;;;;;;;;;;;;;5134961;27;974;-62
2021/12/10 00:44:08;;;;;;;;;;;;;;;;;;5135021;27;950;-62
2021/12/10 00:46:33;;;;;;;;;;;;;;;;;;5134930;27;1061;-62
2021/12/10 00:48:58;;;;;;;;;;;;;;;;;;5134622;27;887;-62
2021/12/10 00:51:24;;;;;;;;;;;;;;;;;;5134940;27;991;-62
2021/12/10 00:53:49;;;;;;;;;;;;;;;;;;5134814;27;840;-62
2021/12/10 00:56:15;;;;;;;;;;;;;;;;;;5116208;27;1965;-62
2021/12/10 00:58:41;;;;;;;;;;;;;;;;;;5115810;27;1150;-61
2021/12/10 01:01:08;;;;;;;;;;;;;;;;;;5134678;27;1049;-62
2021/12/10 01:03:45;;;;;;;;;;;;;;;;;;5134411;27;896;-61
2021/12/10 01:06:12;;;;;;;;;;;;;;;;;;5134863;27;1059;-61
2021/12/10 01:08:39;;;;;;;;;;;;;;;;;;5134618;27;888;-61
2021/12/10 01:11:16;;;;;;;;;;;;;;;;;;5134438;27;974;-60
2021/12/10 01:13:45;;;;;;;;;;;;;;;;;;5134453;27;927;-61
2021/12/10 01:23:43;;;;;;;;;;;;;;;;;;5133641;27;1959;-61
2021/12/10 01:24:38;;;;;;;;;;;;;;;;;;5134460;27;622;-61
2021/12/10 01:27:13;;;;;;;;;;;;;;;;;;5134086;27;899;-61
2021/12/10 01:29:40;;;;;;;;;;;;;;;;;;5133790;27;919;-61
2021/12/10 01:32:07;;;;;;;;;;;;;;;;;;5133712;27;858;-62
2021/12/10 01:34:33;;;;;;;;;;;;;;;;;;5133703;27;1961;-61
2021/12/10 01:36:59;;;;;;;;;;;;;;;;;;5133698;27;824;-61
2021/12/10 01:39:27;;;;;;;;;;;;;;;;;;5134074;27;852;-61
2021/12/10 01:42:13;;;;;;;;;;;;;;;;;;5134271;27;773;-61
2021/12/10 01:44:42;;;;;;;;;;;;;;;;;;5133565;27;883;-61
2021/12/10 01:47:09;;;;;;;;;;;;;;;;;;5133575;27;876;-60
2021/12/10 01:49:34;;;;;;;;;;;;;;;;;;5133699;27;991;-61
2021/12/10 01:51:59;;;;;;;;;;;;;;;;;;5133432;27;892;-61
2021/12/10 01:54:28;;;;;;;;;;;;;;;;;;5114930;27;1921;-60
2021/12/10 01:56:56;;;;;;;;;;;;;;;;;;5114916;27;813;-60
2021/12/10 01:59:24;;;;;;;;;;;;;;;;;;5115096;27;1143;-60
2021/12/10 02:01:51;;;;;;;;;;;;;;;;;;5133403;27;884;-60
2021/12/10 02:04:18;;;;;;;;;;;;;;;;;;5133148;27;1066;-60
2021/12/10 02:06:43;;;;;;;;;;;;;;;;;;5133271;27;775;-60
2021/12/10 02:09:10;;;;;;;;;;;;;;;;;;5133222;27;1084;-60
2021/12/10 02:11:37;;;;;;;;;;;;;;;;;;5133162;27;974;-60
2021/12/10 02:14:02;;;;;;;;;;;;;;;;;;5132879;27;1905;-60
2021/12/10 02:16:27;;;;;;;;;;;;;;;;;;5133146;27;1013;-60
2021/12/10 02:18:53;;;;;;;;;;;;;;;;;;5114657;27;852;-60
2021/12/10 02:21:20;;;;;;;;;;;;;;;;;;5133210;27;919;-61
2021/12/10 02:23:50;;;;;;;;;;;;;;;;;;5133082;27;805;-61
2021/12/10 02:26:16;;;;;;;;;;;;;;;;;;5133342;27;923;-61
2021/12/10 02:28:43;;;;;;;;;;;;;;;;;;5114285;27;868;-61
2021/12/10 02:31:09;;;;;;;;;;;;;;;;;;5140333;27;1167;-61
2021/12/10 02:33:35;;;;;;;;;;;;;;;;;;5142334;27;1151;-61
2021/12/10 02:36:01;;;;;;;;;;;;;;;;;;5131604;27;1914;-61
2021/12/10 02:38:26;;;;;;;;;;;;;;;;;;5133030;27;1147;-61
2021/12/10 02:40:53;;;;;;;;;;;;;;;;;;5132752;27;915;-61
2021/12/10 02:43:19;;;;;;;;;;;;;;;;;;5133080;27;990;-61
2021/12/10 02:45:46;;;;;;;;;;;;;;;;;;5132406;27;804;-61
2021/12/10 02:48:12;;;;;;;;;;;;;;;;;;5132576;27;951;-61
2021/12/10 02:50:38;;;;;;;;;;;;;;;;;;5133330;27;912;-61
2021/12/10 02:53:05;;;;;;;;;;;;;;;;;;5132200;27;830;-61
2021/12/10 02:55:31;;;;;;;;;;;;;;;;;;5132848;27;1914;-61
2021/12/10 02:57:58;;;;;;;;;;;;;;;;;;5132456;27;915;-61
2021/12/10 03:00:29;;;;;;;;;;;;;;;;;;5132405;27;1944;-61
2021/12/10 03:02:54;;;;;;;;;;;;;;;;;;5132462;27;927;-61
2021/12/10 03:05:19;;;;;;;;;;;;;;;;;;5113285;27;887;-61
2021/12/10 03:07:45;;;;;;;;;;;;;;;;;;5132063;27;1054;-60
2021/12/10 03:10:14;;;;;;;;;;;;;;;;;;5131865;27;789;-60
2021/12/10 03:12:40;;;;;;;;;;;;;;;;;;5132152;27;828;-60
2021/12/10 03:15:07;;;;;;;;;;;;;;;;;;5131525;27;1909;-60
2021/12/10 03:17:33;;;;;;;;;;;;;;;;;;5132243;27;884;-61
2021/12/10 03:19:59;;;;;;;;;;;;;;;;;;5131447;27;913;-60
2021/12/10 03:22:25;;;;;;;;;;;;;;;;;;5131896;27;871;-61
2021/12/10 03:24:53;;;;;;;;;;;;;;;;;;5131622;27;753;-60
2021/12/10 03:27:20;;;;;;;;;;;;;;;;;;5131756;27;923;-60
2021/12/10 03:29:46;;;;;;;;;;;;;;;;;;5132130;27;899;-60
2021/12/10 03:32:16;;;;;;;;;;;;;;;;;;5112935;27;833;-60
2021/12/10 03:34:42;;;;;;;;;;;;;;;;;;5132318;28;1972;-60
2021/12/10 03:37:08;;;;;;;;;;;;;;;;;;5113885;28;907;-60
2021/12/10 03:39:34;;;;;;;;;;;;;;;;;;5114011;28;1220;-60
2021/12/10 03:41:59;;;;;;;;;;;;;;;;;;5113493;28;1108;-60
2021/12/10 03:44:26;;;;;;;;;;;;;;;;;;5132010;28;978;-60
2021/12/10 03:46:52;;;;;;;;;;;;;;;;;;5132497;28;1033;-60
2021/12/10 03:49:17;;;;;;;;;;;;;;;;;;5132349;28;816;-60
2021/12/10 03:51:43;;;;;;;;;;;;;;;;;;5132331;28;868;-60
2021/12/10 03:54:08;;;;;;;;;;;;;;;;;;5132992;28;1917;-61
2021/12/10 03:56:34;;;;;;;;;;;;;;;;;;5134892;27;813;-60
2021/12/10 03:59:00;;;;;;;;;;;;;;;;;;5118184;27;1060;-60
2021/12/10 04:01:30;;;;;;;;;;;;;;;;;;5136339;27;803;-60
2021/12/10 04:03:57;;;;;;;;;;;;;;;;;;5136215;27;898;-60
2021/12/10 04:06:22;;;;;;;;;;;;;;;;;;5136371;27;1526;-60
2021/12/10 04:08:47;;;;;;;;;;;;;;;;;;5137136;27;986;-61
2021/12/10 04:11:15;;;;;;;;;;;;;;;;;;5137704;27;835;-60
2021/12/10 04:13:41;;;;;;;;;;;;;;;;;;5138961;27;910;-60
2021/12/10 04:16:06;;;;;;;;;;;;;;;;;;5137923;27;1898;-61
2021/12/10 04:18:32;;;;;;;;;;;;;;;;;;5137323;27;859;-60
2021/12/10 04:20:58;;;;;;;;;;;;;;;;;;5136609;27;867;-60
2021/12/10 04:23:24;;;;;;;;;;;;;;;;;;5136502;27;805;-60
2021/12/10 04:25:49;;;;;;;;;;;;;;;;;;5136286;27;856;-60
2021/12/10 04:28:16;;;;;;;;;;;;;;;;;;5135775;27;915;-60
2021/12/10 04:30:42;;;;;;;;;;;;;;;;;;5135474;27;919;-61
2021/12/10 04:33:09;;;;;;;;;;;;;;;;;;5134794;27;919;-60
2021/12/10 04:35:35;;;;;;;;;;;;;;;;;;5134701;27;1982;-61
2021/12/10 04:38:00;;;;;;;;;;;;;;;;;;5134500;27;916;-60
2021/12/10 04:40:26;;;;;;;;;;;;;;;;;;5135653;27;892;-60
2021/12/10 04:42:51;;;;;;;;;;;;;;;;;;5134966;27;816;-60
2021/12/10 04:45:18;;;;;;;;;;;;;;;;;;5135067;27;884;-60
2021/12/10 04:47:44;;;;;;;;;;;;;;;;;;5116449;27;2045;-60
2021/12/10 04:50:10;;;;;;;;;;;;;;;;;;5134678;27;837;-60
2021/12/10 04:52:35;;;;;;;;;;;;;;;;;;5134690;27;982;-60
2021/12/10 04:55:04;;;;;;;;;;;;;;;;;;5134662;27;1906;-60
2021/12/10 04:57:30;;;;;;;;;;;;;;;;;;5134735;27;1915;-60
2021/12/10 04:59:55;;;;;;;;;;;;;;;;;;5134745;27;962;-60
2021/12/10 05:02:20;;;;;;;;;;;;;;;;;;5134814;27;982;-60
2021/12/10 05:04:47;;;;;;;;;;;;;;;;;;5134796;27;832;-61
2021/12/10 05:07:13;;;;;;;;;;;;;;;;;;5134059;27;839;-60
2021/12/10 05:09:39;;;;;;;;;;;;;;;;;;5134759;27;820;-60
2021/12/10 05:12:04;;;;;;;;;;;;;;;;;;5134338;27;904;-60
2021/12/10 05:14:30;;;;;;;;;;;;;;;;;;5115998;27;1894;-60
2021/12/10 05:16:58;;;;;;;;;;;;;;;;;;5133981;27;947;-60
2021/12/10 05:19:26;;;;;;;;;;;;;;;;;;5134230;27;899;-60
2021/12/10 05:21:51;;;;;;;;;;;;;;;;;;5133694;27;856;-60
2021/12/10 05:24:17;;;;;;;;;;;;;;;;;;5134151;27;808;-60
2021/12/10 05:26:43;;;;;;;;;;;;;;;;;;5133966;27;907;-60
2021/12/10 05:29:09;;;;;;;;;;;;;;;;;;5133349;27;796;-60
2021/12/10 05:31:35;;;;;;;;;;;;;;;;;;5134543;27;875;-60
2021/12/10 05:34:01;;;;;;;;;;;;;;;;;;5133591;27;1155;-60
2021/12/10 05:36:27;;;;;;;;;;;;;;;;;;5133242;27;1969;-60
2021/12/10 05:38:53;;;;;;;;;;;;;;;;;;5133387;27;842;-60
2021/12/10 05:41:18;;;;;;;;;;;;;;;;;;5133968;27;959;-60
2021/12/10 05:43:44;;;;;;;;;;;;;;;;;;5134051;27;943;-60
2021/12/10 05:46:09;;;;;;;;;;;;;;;;;;5114392;27;916;-60
2021/12/10 05:48:35;;;;;;;;;;;;;;;;;;5133619;27;1994;-60
2021/12/10 05:51:01;;;;;;;;;;;;;;;;;;5133734;27;840;-60
2021/12/10 05:53:26;;;;;;;;;;;;;;;;;;5133610;27;882;-60
2021/12/10 05:55:51;;;;;;;;;;;;;;;;;;5114811;27;1973;-60
2021/12/10 05:58:17;;;;;;;;;;;;;;;;;;5133031;27;1100;-60
2021/12/10 06:00:44;;;;;;;;;;;;;;;;;;5145201;27;1182;-60
2021/12/10 06:03:10;;;;;;;;;;;;;;;;;;5150922;27;1226;-60
2021/12/10 06:05:36;;;;;;;;;;;;;;;;;;5153878;27;1221;-60
2021/12/10 06:08:02;;;;;;;;;;;;;;;;;;5154037;27;874;-60
2021/12/10 06:10:28;;;;;;;;;;;;;;;;;;5154428;27;982;-60
2021/12/10 06:12:54;;;;;;;;;;;;;;;;;;5144030;27;1123;-60
2021/12/10 06:15:20;;;;;;;;;;;;;;;;;;5134705;27;1918;-60
2021/12/10 06:17:46;;;;;;;;;;;;;;;;;;5135220;27;1174;-60
2021/12/10 06:20:15;;;;;;;;;;;;;;;;;;5152821;27;907;-60
2021/12/10 06:22:40;;;;;;;;;;;;;;;;;;5118650;27;1313;-60
2021/12/10 06:25:06;;;;;;;;;;;;;;;;;;5153484;27;879;-61
2021/12/10 06:27:32;;;;;;;;;;;;;;;;;;5135126;27;1288;-61
2021/12/10 06:29:58;;;;;;;;;;;;;;;;;;5153291;27;821;-60
2021/12/10 06:32:24;;;;;;;;;;;;;;;;;;5154585;27;773;-60
2021/12/10 06:34:49;;;;;;;;;;;;;;;;;;5134569;27;1901;-60
2021/12/10 06:37:14;;;;;;;;;;;;;;;;;;5153271;27;1042;-60
2021/12/10 06:39:40;;;;;;;;;;;;;;;;;;5153765;27;1013;-60
2021/12/10 06:42:05;;;;;;;;;;;;;;;;;;5134389;27;1276;-60
2021/12/10 06:44:30;;;;;;;;;;;;;;;;;;5153272;27;944;-60
2021/12/10 06:46:56;;;;;;;;;;;;;;;;;;5153676;27;899;-60
2021/12/10 06:49:21;;;;;;;;;;;;;;;;;;5134265;27;962;-60
2021/12/10 06:51:46;;;;;;;;;;;;;;;;;;5154251;27;832;-60
2021/12/10 06:54:12;;;;;;;;;;;;;;;;;;5134514;27;1906;-60
2021/12/10 06:56:37;;;;;;;;;;;;;;;;;;5153243;27;840;-60
2021/12/10 06:59:04;;;;;;;;;;;;;;;;;;5152964;27;828;-60
2021/12/10 07:01:31;;;;;;;;;;;;;;;;;;5134209;27;979;-60
2021/12/10 07:03:57;;;;;;;;;;;;;;;;;;5152746;27;994;-60
2021/12/10 07:06:24;;;;;;;;;;;;;;;;;;5153275;27;1240;-60
2021/12/10 07:08:50;;;;;;;;;;;;;;;;;;5152900;27;848;-60
2021/12/10 07:11:16;;;;;;;;;;;;;;;;;;5152671;27;902;-60
2021/12/10 07:13:44;;;;;;;;;;;;;;;;;;5152807;27;880;-60
2021/12/10 07:16:09;;;;;;;;;;;;;;;;;;5152227;27;1921;-60
2021/12/10 07:18:35;;;;;;;;;;;;;;;;;;5152794;27;839;-60
2021/12/10 07:21:01;;;;;;;;;;;;;;;;;;5152627;27;832;-60
2021/12/10 07:23:26;;;;;;;;;;;;;;;;;;5152422;27;1208;-60
2021/12/10 07:25:52;;;;;;;;;;;;;;;;;;5153163;27;904;-60
2021/12/10 07:28:17;;;;;;;;;;;;;;;;;;5153447;27;891;-60
2021/12/10 07:30:43;;;;;;;;;;;;;;;;;;5152876;27;860;-60
2021/12/10 07:33:08;;;;;;;;;;;;;;;;;;5152324;27;986;-60
2021/12/10 07:35:34;;;;;;;;;;;;;;;;;;5152435;27;1980;-60
2021/12/10 07:38:00;;;;;;;;;;;;;;;;;;5152926;27;1072;-60
2021/12/10 07:40:27;;;;;;;;;;;;;;;;;;5152685;27;843;-60
2021/12/10 07:42:52;;;;;;;;;;;;;;;;;;5153312;27;801;-60
2021/12/10 07:45:18;;;;;;;;;;;;;;;;;;5152109;27;827;-60
2021/12/10 07:47:45;;;;;;;;;;;;;;;;;;5152725;27;977;-60
2021/12/10 07:50:12;;;;;;;;;;;;;;;;;;5152450;27;879;-60
2021/12/10 07:52:40;;;;;;;;;;;;;;;;;;5152820;27;895;-60
2021/12/10 07:55:07;;;;;;;;;;;;;;;;;;5152041;27;1913;-60
2021/12/10 07:57:32;;;;;;;;;;;;;;;;;;5152517;27;949;-60
2021/12/10 07:59:58;;;;;;;;;;;;;;;;;;5134248;27;880;-60
2021/12/10 08:02:23;;;;;;;;;;;;;;;;;;5152221;27;870;-60
2021/12/10 08:04:49;;;;;;;;;;;;;;;;;;5152597;27;1002;-60
2021/12/10 08:07:14;;;;;;;;;;;;;;;;;;5152269;27;757;-61
2021/12/10 08:09:40;;;;;;;;;;;;;;;;;;5152173;27;937;-61
2021/12/10 08:12:06;;;;;;;;;;;;;;;;;;5151902;27;829;-61
2021/12/10 08:14:31;;;;;;;;;;;;;;;;;;5152003;27;1967;-61
2021/12/10 08:16:56;;;;;;;;;;;;;;;;;;5152367;27;932;-61
2021/12/10 08:19:21;;;;;;;;;;;;;;;;;;5151363;27;903;-61
2021/12/10 08:21:47;;;;;;;;;;;;;;;;;;5152077;27;832;-59
2021/12/10 08:24:12;;;;;;;;;;;;;;;;;;5151494;27;958;-60
2021/12/10 08:26:38;;;;;;;;;;;;;;;;;;5152366;27;1136;-60
2021/12/10 08:29:06;;;;;;;;;;;;;;;;;;5151857;27;856;-60
2021/12/10 08:31:31;;;;;;;;;;;;;;;;;;5152377;27;817;-59
2021/12/10 08:33:57;;;;;;;;;;;;;;;;;;5152058;27;917;-59
2021/12/10 08:36:22;;;;;;;;;;;;;;;;;;5151067;27;1905;-61
2021/12/10 08:38:48;;;;;;;;;;;;;;;;;;5152537;27;891;-61
2021/12/10 08:41:17;;;;;;;;;;;;;;;;;;5133071;27;887;-61
2021/12/10 08:43:42;;;;;;;;;;;;;;;;;;5154784;27;843;-61
2021/12/10 08:46:08;;;;;;;;;;;;;;;;;;5154743;27;1091;-61
2021/12/10 08:48:34;;;;;;;;;;;;;;;;;;5155316;27;1069;-61
2021/12/10 08:51:01;;;;;;;;;;;;;;;;;;5155356;27;808;-61
2021/12/10 08:53:27;;;;;;;;;;;;;;;;;;5155381;27;908;-61
2021/12/10 08:55:54;;;;;;;;;;;;;;;;;;5155195;27;1913;-61
2021/12/10 08:58:20;;;;;;;;;;;;;;;;;;5154525;27;907;-61
2021/12/10 09:00:51;;;;;;;;;;;;;;;;;;5155108;27;876;-61
2021/12/10 09:03:18;;;;;;;;;;;;;;;;;;5155063;27;911;-60
2021/12/10 09:05:44;;;;;;;;;;;;;;;;;;5136623;27;1237;-60
2021/12/10 09:08:11;;;;;;;;;;;;;;;;;;5154636;27;931;-60
2021/12/10 09:10:38;;;;;;;;;;;;;;;;;;5136740;27;1069;-60
2021/12/10 09:13:13;;;;;;;;;;;;;;;;;;5155374;27;860;-59
2021/12/10 09:15:38;;;;;;;;;;;;;;;;;;5155227;27;1905;-59
2021/12/10 09:18:05;;;;;;;;;;;;;;;;;;5155335;27;931;-60
2021/12/10 09:20:35;;;;;;;;;;;;;;;;;;5155235;27;844;-60
2021/12/10 09:23:00;;;;;;;;;;;;;;;;;;5155047;27;968;-60
2021/12/10 09:25:26;;;;;;;;;;;;;;;;;;5136307;27;1382;-59
2021/12/10 09:27:51;;;;;;;;;;;;;;;;;;5155123;27;868;-60
2021/12/10 09:30:19;;;;;;;;;;;;;;;;;;5154476;27;942;-60
2021/12/10 09:32:45;;;;;;;;;;;;;;;;;;5155046;27;1229;-60
2021/12/10 09:35:13;;;;;;;;;;;;;;;;;;5154437;27;1917;-60
2021/12/10 09:37:40;;;;;;;;;;;;;;;;;;5155092;27;902;-60
2021/12/10 09:40:10;;;;;;;;;;;;;;;;;;5154581;27;826;-60
2021/12/10 09:42:36;;;;;;;;;;;;;;;;;;5155325;27;918;-60
2021/12/10 09:45:02;;;;;;;;;;;;;;;;;;5154498;27;920;-60
2021/12/10 09:47:29;;;;;;;;;;;;;;;;;;5154437;27;812;-60
2021/12/10 09:49:55;;;;;;;;;;;;;;;;;;5154291;27;936;-60
2021/12/10 09:52:21;;;;;;;;;;;;;;;;;;5154120;27;900;-60
2021/12/10 09:54:48;;;;;;;;;;;;;;;;;;5154687;27;1972;-60
2021/12/10 09:57:14;;;;;;;;;;;;;;;;;;5154172;27;757;-60
2021/12/10 09:59:40;;;;;;;;;;;;;;;;;;5154223;27;990;-60
2021/12/10 10:02:06;;;;;;;;;;;;;;;;;;5154124;27;828;-60
2021/12/10 10:04:35;;;;;;;;;;;;;;;;;;5153624;27;887;-60
2021/12/10 10:07:05;;;;;;;;;;;;;;;;;;5153768;27;908;-60
2021/12/10 10:09:30;;;;;;;;;;;;;;;;;;5153214;27;1229;-60
2021/12/10 10:11:58;;;;;;;;;;;;;;;;;;5153695;27;1150;-60
2021/12/10 10:14:24;;;;;;;;;;;;;;;;;;5153522;27;1964;-60
2021/12/10 10:16:49;;;;;;;;;;;;;;;;;;5153459;27;1199;-60
2021/12/10 10:19:15;;;;;;;;;;;;;;;;;;5153170;27;892;-60
2021/12/10 10:21:42;;;;;;;;;;;;;;;;;;5153799;27;934;-59
2021/12/10 10:24:08;;;;;;;;;;;;;;;;;;5153845;27;926;-60
2021/12/10 10:26:35;;;;;;;;;;;;;;;;;;5153333;27;895;-60
2021/12/10 10:29:04;;;;;;;;;;;;;;;;;;5153377;27;844;-60
2021/12/10 10:31:30;;;;;;;;;;;;;;;;;;5153231;27;795;-60
2021/12/10 10:33:56;;;;;;;;;;;;;;;;;;5153011;27;1111;-60
2021/12/10 10:36:24;;;;;;;;;;;;;;;;;;5152553;27;1929;-60
2021/12/10 10:38:53;;;;;;;;;;;;;;;;;;5153390;27;849;-60
2021/12/10 10:41:20;;;;;;;;;;;;;;;;;;5153030;27;852;-60
2021/12/10 10:43:45;;;;;;;;;;;;;;;;;;5153196;27;851;-60
2021/12/10 10:46:11;;;;;;;;;;;;;;;;;;5153335;27;847;-60
2021/12/10 10:48:37;;;;;;;;;;;;;;;;;;5152644;27;852;-60
2021/12/10 10:51:04;;;;;;;;;;;;;;;;;;5117619;27;2082;-60
2021/12/10 10:53:35;;;;;;;;;;;;;;;;;;5153407;27;923;-60
2021/12/10 10:56:04;;;;;;;;;;;;;;;;;;5153160;27;1967;-60
2021/12/10 10:58:32;;;;;;;;;;;;;;;;;;5153371;27;844;-60
2021/12/10 11:01:03;;;;;;;;;;;;;;;;;;5153939;27;899;-60
2021/12/10 11:03:38;;;;;;;;;;;;;;;;;;5153082;27;875;-59
2021/12/10 11:06:08;;;;;;;;;;;;;;;;;;5152479;27;863;-60
2021/12/10 11:08:41;;;;;;;;;;;;;;;;;;5152948;27;1001;-59
2021/12/10 11:11:06;;;;;;;;;;;;;;;;;;5153217;27;927;-59
2021/12/10 11:13:32;;;;;;;;;;;;;;;;;;5153203;27;899;-60
2021/12/10 11:16:00;;;;;;;;;;;;;;;;;;5153049;27;1890;-60
2021/12/10 11:18:26;;;;;;;;;;;;;;;;;;5152702;27;785;-60
2021/12/10 11:20:51;;;;;;;;;;;;;;;;;;5153046;27;1073;-60
2021/12/10 11:23:20;;;;;;;;;;;;;;;;;;5152950;27;911;-59
2021/12/10 11:25:48;;;;;;;;;;;;;;;;;;5134435;27;1010;-60
2021/12/10 11:28:22;;;;;;;;;;;;;;;;;;5152337;27;807;-60
2021/12/10 11:30:51;;;;;;;;;;;;;;;;;;5153038;27;823;-60
2021/12/10 11:33:20;;;;;;;;;;;;;;;;;;5152663;27;927;-60
2021/12/10 11:35:48;;;;;;;;;;;;;;;;;;5152171;27;1902;-60
2021/12/10 11:38:15;;;;;;;;;;;;;;;;;;5152640;27;887;-60
2021/12/10 11:40:41;;;;;;;;;;;;;;;;;;5152155;27;973;-60
2021/12/10 11:43:17;;;;;;;;;;;;;;;;;;5152831;27;781;-59
2021/12/10 11:46:15;;;;;;;;;;;;;;;;;;5152420;27;844;-60
2021/12/10 11:48:29;;;;;;;;;;;;;;;;;;5151154;27;1110;-60
2021/12/10 11:51:07;;;;;;;;;;;;;;;;;;5152522;27;844;-60
2021/12/10 11:53:41;;;;;;;;;;;;;;;;;;5152139;27;879;-59
2021/12/10 11:56:09;;;;;;;;;;;;;;;;;;5152217;27;1909;-60
2021/12/10 11:58:34;;;;;;;;;;;;;;;;;;5133216;27;864;-60
2021/12/10 12:01:00;;;;;;;;;;;;;;;;;;5152814;27;785;-60
2021/12/10 12:03:30;;;;;;;;;;;;;;;;;;5152178;27;982;-60
2021/12/10 12:05:55;;;;;;;;;;;;;;;;;;5152436;27;985;-60
2021/12/10 12:08:21;;;;;;;;;;;;;;;;;;5151973;27;836;-60
2021/12/10 12:11:07;;;;;;;;;;;;;;;;;;5152409;27;941;-60
2021/12/10 12:13:43;;;;;;;;;;;;;;;;;;5151909;27;769;-60
2021/12/10 12:16:14;;;;;;;;;;;;;;;;;;5151638;27;1907;-61
2021/12/10 12:18:41;;;;;;;;;;;;;;;;;;5155355;27;827;-61
2021/12/10 12:26:52;;;;;;;;;;;;;;;;;;5155934;27;634;-61
2021/12/10 12:29:18;;;;;;;;;;;;;;;;;;5155964;27;1053;-61
2021/12/10 12:31:43;;;;;;;;;;;;;;;;;;5120025;27;1287;-61
2021/12/10 12:34:14;;;;;;;;;;;;;;;;;;5156107;27;946;-61
2021/12/10 12:36:43;;;;;;;;;;;;;;;;;;5136472;27;1906;-61
2021/12/10 12:39:10;;;;;;;;;;;;;;;;;;5155455;27;760;-61
2021/12/10 12:41:37;;;;;;;;;;;;;;;;;;5136750;27;658;-61
2021/12/10 12:44:08;;;;;;;;;;;;;;;;;;5156135;27;859;-61
2021/12/10 12:46:33;;;;;;;;;;;;;;;;;;5155745;27;927;-61
2021/12/10 12:49:00;;;;;;;;;;;;;;;;;;5156340;27;848;-61
2021/12/10 12:51:26;;;;;;;;;;;;;;;;;;5156059;27;933;-61
2021/12/10 12:53:52;;;;;;;;;;;;;;;;;;5137345;27;1115;-61
2021/12/10 12:56:18;;;;;;;;;;;;;;;;;;5155509;27;1914;-61
2021/12/10 12:58:50;;;;;;;;;;;;;;;;;;5137555;27;1260;-61
2021/12/10 13:01:18;;;;;;;;;;;;;;;;;;5156083;27;907;-61
2021/12/10 13:03:43;;;;;;;;;;;;;;;;;;5156333;27;788;-61
2021/12/10 13:06:21;;;;;;;;;;;;;;;;;;5158436;27;907;-61
2021/12/10 13:08:54;;;;;;;;;;;;;;;;;;5159709;27;1034;-61
2021/12/10 13:11:24;;;;;;;;;;;;;;;;;;5159361;27;843;-61
2021/12/10 13:13:59;;;;;;;;;;;;;;;;;;5156599;27;820;-61
2021/12/10 13:16:37;;;;;;;;;;;;;;;;;;5155414;27;1964;-61
2021/12/10 13:19:04;;;;;;;;;;;;;;;;;;5155326;27;871;-61
2021/12/10 13:21:30;;;;;;;;;;;;;;;;;;5154758;27;788;-61
2021/12/10 13:23:55;;;;;;;;;;;;;;;;;;5154713;27;970;-61
2021/12/10 13:26:20;;;;;;;;;;;;;;;;;;5154362;27;820;-61
2021/12/10 13:28:45;;;;;;;;;;;;;;;;;;5154153;27;966;-61
2021/12/10 13:31:12;;;;;;;;;;;;;;;;;;5155073;27;816;-61
2021/12/10 13:33:39;;;;;;;;;;;;;;;;;;5154432;27;922;-61
2021/12/10 13:36:06;;;;;;;;;;;;;;;;;;5154084;27;1964;-61
2021/12/10 13:38:33;;;;;;;;;;;;;;;;;;5154382;27;823;-61
2021/12/10 13:40:59;;;;;;;;;;;;;;;;;;5154238;27;801;-61
2021/12/10 13:43:25;;;;;;;;;;;;;;;;;;5154401;27;998;-61
2021/12/10 13:45:59;;;;;;;;;;;;;;;;;;5153961;27;1224;-61
2021/12/10 13:48:36;;;;;;;;;;;;;;;;;;5154356;27;866;-61
2021/12/10 13:51:03;;;;;;;;;;;;;;;;;;5154375;27;836;-61
2021/12/10 13:53:28;;;;;;;;;;;;;;;;;;5154056;27;809;-61
2021/12/10 13:55:59;;;;;;;;;;;;;;;;;;5153967;27;1909;-61
2021/12/10 13:58:54;;;;;;;;;;;;;;;;;;5153830;27;899;-61
2021/12/10 14:01:27;;;;;;;;;;;;;;;;;;5131380;27;1221;-61
2021/12/10 14:04:07;;;;;;;;;;;;;;;;;;5153718;27;801;-61
2021/12/10 14:06:51;;;;;;;;;;;;;;;;;;5153976;27;882;-61
2021/12/10 14:09:18;;;;;;;;;;;;;;;;;;5154122;27;769;-61
2021/12/10 14:12:03;;;;;;;;;;;;;;;;;;5134934;27;1940;-61
2021/12/10 14:14:31;;;;;;;;;;;;;;;;;;5134943;27;1969;-61
2021/12/10 14:16:58;;;;;;;;;;;;;;;;;;5154238;27;776;-61
2021/12/10 14:19:53;;;;;;;;;;;;;;;;;;5153476;27;1807;-61
2021/12/10 14:22:36;;;;;;;;;;;;;;;;;;5132104;27;1365;-61
2021/12/10 14:25:01;;;;;;;;;;;;;;;;;;5153594;27;824;-61
2021/12/10 14:27:27;;;;;;;;;;;;;;;;;;5152832;27;828;-61
2021/12/10 14:30:13;;;;;;;;;;;;;;;;;;5153395;27;769;-61
2021/12/10 14:32:39;;;;;;;;;;;;;;;;;;5153524;27;839;-61
2021/12/10 14:35:04;;;;;;;;;;;;;;;;;;5153583;27;1889;-61
2021/12/10 14:37:45;;;;;;;;;;;;;;;;;;5153769;27;788;-61
2021/12/10 14:40:11;;;;;;;;;;;;;;;;;;5152522;27;820;-61
2021/12/10 14:42:36;;;;;;;;;;;;;;;;;;5153379;27;1013;-59
2021/12/10 14:45:06;;;;;;;;;;;;;;;;;;5153667;27;982;-62
2021/12/10 14:47:31;;;;;;;;;;;;;;;;;;5153245;27;831;-59
2021/12/10 14:49:58;;;;;;;;;;;;;;;;;;5134347;27;1050;-62
2021/12/10 14:52:26;;;;;;;;;;;;;;;;;;5153482;27;856;-59
2021/12/10 14:55:06;;;;;;;;;;;;;;;;;;5152697;27;1913;-60
2021/12/10 14:57:42;;;;;;;;;;;;;;;;;;5152611;27;855;-60
2021/12/10 15:00:30;;;;;;;;;;;;;;;;;;5152757;27;869;-60
2021/12/10 15:03:11;;;;;;;;;;;;;;;;;;5151725;27;860;-60
2021/12/10 15:05:43;;;;;;;;;;;;;;;;;;5151994;27;871;-60
2021/12/10 15:08:10;;;;;;;;;;;;;;;;;;5152518;27;793;-60
2021/12/10 15:10:42;;;;;;;;;;;;;;;;;;5152072;27;843;-60
2021/12/10 15:13:20;;;;;;;;;;;;;;;;;;5152493;27;801;-60
2021/12/10 15:15:45;;;;;;;;;;;;;;;;;;5152515;27;1977;-61
2021/12/10 15:18:29;;;;;;;;;;;;;;;;;;5152248;27;930;-60
2021/12/10 15:21:11;;;;;;;;;;;;;;;;;;5152288;27;997;-60
2021/12/10 15:23:36;;;;;;;;;;;;;;;;;;5152581;27;820;-59
2021/12/10 15:26:02;;;;;;;;;;;;;;;;;;5134045;27;836;-59
2021/12/10 15:28:33;;;;;;;;;;;;;;;;;;5152412;27;855;-59
2021/12/10 15:31:00;;;;;;;;;;;;;;;;;;5133858;27;891;-59
2021/12/10 15:33:29;;;;;;;;;;;;;;;;;;5152772;27;827;-60
2021/12/10 15:35:55;;;;;;;;;;;;;;;;;;5151995;27;1907;-60
2021/12/10 15:38:27;;;;;;;;;;;;;;;;;;5152192;27;835;-60
2021/12/10 15:41:12;;;;;;;;;;;;;;;;;;5133004;27;1196;-60
2021/12/10 15:43:48;;;;;;;;;;;;;;;;;;5151622;27;844;-60
2021/12/10 15:46:23;;;;;;;;;;;;;;;;;;5133676;27;772;-61
2021/12/10 15:48:50;;;;;;;;;;;;;;;;;;5151858;27;1618;-60
2021/12/10 15:51:19;;;;;;;;;;;;;;;;;;5153017;27;891;-60
2021/12/10 15:54:04;;;;;;;;;;;;;;;;;;5156778;27;844;-60
2021/12/10 15:56:32;;;;;;;;;;;;;;;;;;5156420;27;1968;-60
2021/12/10 15:58:58;;;;;;;;;;;;;;;;;;5156413;27;1064;-60
2021/12/10 16:01:26;;;;;;;;;;;;;;;;;;5156652;27;769;-60
2021/12/10 16:03:53;;;;;;;;;;;;;;;;;;5156818;27;828;-60
2021/12/10 16:06:18;;;;;;;;;;;;;;;;;;5156872;27;1150;-60
2021/12/10 16:08:46;;;;;;;;;;;;;;;;;;5156878;27;815;-60
2021/12/10 16:11:13;;;;;;;;;;;;;;;;;;5157012;27;781;-60
2021/12/10 16:13:39;;;;;;;;;;;;;;;;;;5156967;27;876;-60
2021/12/10 16:16:06;;;;;;;;;;;;;;;;;;5156741;27;1905;-60
2021/12/10 16:18:34;;;;;;;;;;;;;;;;;;5156875;27;833;-60
2021/12/10 16:21:10;;;;;;;;;;;;;;;;;;5156626;27;962;-61
2021/12/10 16:23:43;;;;;;;;;;;;;;;;;;5156896;27;805;-59
2021/12/10 16:26:12;;;;;;;;;;;;;;;;;;5138317;27;1405;-59
2021/12/10 16:28:37;;;;;;;;;;;;;;;;;;5156315;27;883;-61
2021/12/10 16:31:05;;;;;;;;;;;;;;;;;;5137606;27;1033;-60
2021/12/10 16:33:34;;;;;;;;;;;;;;;;;;5156297;27;1419;-59
2021/12/10 16:36:00;;;;;;;;;;;;;;;;;;5155972;27;1902;-59
2021/12/10 16:38:27;;;;;;;;;;;;;;;;;;5155913;27;936;-60
2021/12/10 16:41:02;;;;;;;;;;;;;;;;;;5156348;27;859;-60
2021/12/10 16:43:29;;;;;;;;;;;;;;;;;;5156234;27;1268;-60
2021/12/10 16:45:54;;;;;;;;;;;;;;;;;;5152193;27;1185;-60
2021/12/10 16:48:24;;;;;;;;;;;;;;;;;;5152219;27;1241;-60
2021/12/10 16:50:53;;;;;;;;;;;;;;;;;;5145557;27;1439;-60
2021/12/10 16:53:22;;;;;;;;;;;;;;;;;;5155814;27;860;-59
2021/12/10 16:55:52;;;;;;;;;;;;;;;;;;5155463;27;1967;-59
2021/12/10 16:58:19;;;;;;;;;;;;;;;;;;5156018;27;813;-60
2021/12/10 17:00:47;;;;;;;;;;;;;;;;;;5155983;27;860;-60
2021/12/10 17:03:17;;;;;;;;;;;;;;;;;;5155267;27;819;-59
2021/12/10 17:05:43;;;;;;;;;;;;;;;;;;5155762;27;922;-60
2021/12/10 17:08:17;;;;;;;;;;;;;;;;;;5155389;27;1054;-59
2021/12/10 17:10:54;;;;;;;;;;;;;;;;;;5155383;27;926;-60
2021/12/10 17:13:26;;;;;;;;;;;;;;;;;;5155115;27;851;-60
2021/12/10 17:15:51;;;;;;;;;;;;;;;;;;5155122;27;1894;-59
2021/12/10 17:18:19;;;;;;;;;;;;;;;;;;5155154;27;918;-60
2021/12/10 17:20:57;;;;;;;;;;;;;;;;;;5155426;27;847;-60
2021/12/10 17:23:23;;;;;;;;;;;;;;;;;;5155440;27;796;-60
2021/12/10 17:26:01;;;;;;;;;;;;;;;;;;5154765;27;835;-60
2021/12/10 17:28:29;;;;;;;;;;;;;;;;;;5155184;27;816;-60
2021/12/10 17:31:05;;;;;;;;;;;;;;;;;;5154366;27;1770;-60
2021/12/10 17:33:32;;;;;;;;;;;;;;;;;;5154607;27;801;-60